createdAt,value
2022-10-13T00:03:02.348Z,6.18
2022-10-13T00:06:07.302Z,6.95
2022-10-13T00:09:09.661Z,8.80
2022-10-13T00:12:12.039Z,8.48
2022-10-13T00:15:14.405Z,8.63
2022-10-13T00:18:17.005Z,9.25
2022-10-13T00:21:23.030Z,8.65
2022-10-13T00:24:25.391Z,7.90
2022-10-13T00:27:27.829Z,10.85
2022-10-13T00:30:34.713Z,9.93
2022-10-13T00:33:37.030Z,16.02
2022-10-13T00:36:39.515Z,13.40
2022-10-13T00:39:41.915Z,13.07
2022-10-13T00:42:44.364Z,15.40
2022-10-13T00:45:49.834Z,11.90
2022-10-13T00:48:52.768Z,15.65
2022-10-13T00:51:55.146Z,11.85
2022-10-13T00:54:58.460Z,12.13
2022-10-13T00:58:05.421Z,12.13
2022-10-13T01:01:08.366Z,13.77
2022-10-13T01:04:11.116Z,9.80
2022-10-13T01:07:15.174Z,10.70
2022-10-13T01:10:29.979Z,9.13
2022-10-13T01:13:49.056Z,14.80
2022-10-13T01:17:14.441Z,15.57
2022-10-13T01:20:50.768Z,22.30
2022-10-13T01:24:08.058Z,23.42
2022-10-13T01:27:16.256Z,19.50
2022-10-13T01:30:20.494Z,21.30
2022-10-13T01:33:45.926Z,16.23
2022-10-13T01:36:59.945Z,16.30
2022-10-13T01:40:24.949Z,17.10
2022-10-13T01:43:47.437Z,13.68
2022-10-13T01:46:50.874Z,24.60
2022-10-13T01:49:54.365Z,27.00
2022-10-13T01:52:59.676Z,21.80
2022-10-13T01:56:02.079Z,17.10
2022-10-13T01:59:13.235Z,14.50
2022-10-13T02:02:23.667Z,17.52
2022-10-13T02:05:49.247Z,17.57
2022-10-13T02:09:09.500Z,13.32
2022-10-13T02:12:23.579Z,12.43
2022-10-13T02:15:31.672Z,11.75
2022-10-13T02:18:36.095Z,12.23
2022-10-13T02:21:41.953Z,12.37
2022-10-13T02:24:44.420Z,10.77
2022-10-13T02:27:46.827Z,11.30
2022-10-13T02:30:49.415Z,11.77
2022-10-13T02:33:51.903Z,11.85
2022-10-13T02:36:54.327Z,12.60
2022-10-13T02:39:56.712Z,12.70
2022-10-13T02:42:59.116Z,15.90
2022-10-13T02:46:01.436Z,15.45
2022-10-13T02:49:04.198Z,13.60
2022-10-13T02:52:06.876Z,14.60
2022-10-13T02:55:09.395Z,15.25
2022-10-13T02:58:12.716Z,20.85
2022-10-13T03:01:15.915Z,14.68
2022-10-13T03:04:18.447Z,12.70
2022-10-13T03:07:20.790Z,16.80
2022-10-13T03:10:23.158Z,15.27
2022-10-13T03:13:27.773Z,13.23
2022-10-13T03:16:36.061Z,14.48
2022-10-13T03:19:38.508Z,13.20
2022-10-13T03:22:40.823Z,11.03
2022-10-13T03:25:43.320Z,14.13
2022-10-13T03:28:52.305Z,15.10
2022-10-13T03:31:54.775Z,17.70
2022-10-13T03:34:57.125Z,14.65
2022-10-13T03:37:59.503Z,14.37
2022-10-13T03:41:07.819Z,13.43
2022-10-13T03:44:13.395Z,12.75
2022-10-13T03:47:15.824Z,15.82
2022-10-13T03:50:18.462Z,14.63
2022-10-13T03:53:20.816Z,13.57
2022-10-13T03:56:26.191Z,14.63
2022-10-13T03:59:34.166Z,16.70
2022-10-13T04:02:38.919Z,15.77
2022-10-13T04:05:41.303Z,18.67
2022-10-13T04:08:43.925Z,13.97
2022-10-13T04:11:46.272Z,16.27
2022-10-13T04:14:48.676Z,18.77
2022-10-13T04:17:51.087Z,55.40
2022-10-13T04:20:53.485Z,29.17
2022-10-13T04:23:57.331Z,42.37
2022-10-13T04:26:59.679Z,42.67
2022-10-13T04:30:02.115Z,22.60
2022-10-13T04:33:05.236Z,21.83
2022-10-13T04:36:09.063Z,19.27
2022-10-13T04:39:11.409Z,24.77
2022-10-13T04:42:13.900Z,18.73
2022-10-13T04:45:16.562Z,13.63
2022-10-13T04:48:24.764Z,19.25
2022-10-13T04:51:27.311Z,21.75
2022-10-13T04:54:29.703Z,11.37
2022-10-13T04:57:32.064Z,14.80
2022-10-13T05:00:35.524Z,9.90
2022-10-13T05:03:38.016Z,19.73
2022-10-13T05:07:05.411Z,19.20
2022-10-13T05:10:05.236Z,20.03
2022-10-13T05:13:07.797Z,20.10
2022-10-13T05:16:12.914Z,18.00
2022-10-13T05:19:15.630Z,17.10
2022-10-13T05:22:18.336Z,14.57
2022-10-13T05:25:22.979Z,14.53
2022-10-13T05:28:25.470Z,12.65
2022-10-13T05:31:29.267Z,15.27
2022-10-13T05:34:33.356Z,13.30
2022-10-13T05:37:35.748Z,15.85
2022-10-13T05:40:38.133Z,44.13
2022-10-13T05:43:41.959Z,104.82
2022-10-13T05:46:44.350Z,69.35
2022-10-13T05:49:46.796Z,37.42
2022-10-13T05:52:49.350Z,41.90
2022-10-13T05:55:52.684Z,44.50
2022-10-13T05:59:00.045Z,28.50
2022-10-13T06:02:03.707Z,39.55
2022-10-13T06:05:08.587Z,36.92
2022-10-13T06:08:11.128Z,35.80
2022-10-13T06:11:17.856Z,31.63
2022-10-13T06:14:20.341Z,18.48
2022-10-13T06:17:22.804Z,13.82
2022-10-13T06:20:27.551Z,14.93
2022-10-13T06:23:30.188Z,13.75
2022-10-13T06:26:32.648Z,11.93
2022-10-13T06:29:36.069Z,10.75
2022-10-13T06:32:38.461Z,10.05
2022-10-13T06:35:41.421Z,9.90
2022-10-13T06:38:47.498Z,8.98
2022-10-13T06:41:52.735Z,9.23
2022-10-13T06:44:55.939Z,12.13
2022-10-13T06:47:58.278Z,10.57
2022-10-13T06:51:11.060Z,13.85
2022-10-13T06:54:13.495Z,15.43
2022-10-13T06:57:15.922Z,13.87
2022-10-13T07:00:19.089Z,13.85
2022-10-13T07:03:22.189Z,13.98
2022-10-13T07:06:24.853Z,9.18
2022-10-13T07:09:29.483Z,9.93
2022-10-13T07:12:31.783Z,11.53
2022-10-13T07:15:34.832Z,10.13
2022-10-13T07:18:37.279Z,10.68
2022-10-13T07:21:39.651Z,12.73
2022-10-13T07:24:42.563Z,12.52
2022-10-13T07:27:45.065Z,12.30
2022-10-13T07:30:47.514Z,10.30
2022-10-13T07:33:51.603Z,10.77
2022-10-13T07:36:54.095Z,13.57
2022-10-13T07:39:56.454Z,12.93
2022-10-13T07:43:01.662Z,11.33
2022-10-13T07:46:06.282Z,11.05
2022-10-13T07:49:11.252Z,10.85
2022-10-13T07:52:16.161Z,10.70
2022-10-13T07:55:18.566Z,10.98
2022-10-13T07:58:21.027Z,10.90
2022-10-13T08:01:23.435Z,20.50
2022-10-13T08:04:28.813Z,9.27
2022-10-13T08:07:31.188Z,10.75
2022-10-13T08:10:33.536Z,8.73
2022-10-13T08:13:36.009Z,12.43
2022-10-13T08:16:53.890Z,13.93
2022-10-13T08:19:56.374Z,11.82
2022-10-13T08:23:01.665Z,9.30
2022-10-13T08:26:04.046Z,11.88
2022-10-13T08:29:24.063Z,10.90
2022-10-13T08:32:27.302Z,10.90
2022-10-13T08:35:34.140Z,10.50
2022-10-13T08:38:37.446Z,12.93
2022-10-13T08:41:43.736Z,13.68
2022-10-13T08:45:16.144Z,11.23
2022-10-13T08:48:19.231Z,13.45
2022-10-13T08:51:21.703Z,17.23
2022-10-13T08:54:25.028Z,13.70
2022-10-13T08:57:27.391Z,9.82
2022-10-13T09:00:30.397Z,11.03
2022-10-13T09:03:41.927Z,8.13
2022-10-13T09:06:45.678Z,7.63
2022-10-13T09:09:52.009Z,6.38
2022-10-13T09:12:56.212Z,8.93
2022-10-13T09:15:58.833Z,11.40
2022-10-13T09:19:15.298Z,7.30
2022-10-13T09:22:30.009Z,7.25
2022-10-13T09:25:50.813Z,10.45
2022-10-13T09:28:53.332Z,8.60
2022-10-13T09:32:24.815Z,6.80
2022-10-13T09:35:27.312Z,5.38
2022-10-13T09:38:30.552Z,5.25
2022-10-13T09:41:33.637Z,8.52
2022-10-13T09:44:36.069Z,9.85
2022-10-13T09:47:38.562Z,9.67
2022-10-13T09:50:48.482Z,7.38
2022-10-13T09:53:51.004Z,12.00
2022-10-13T09:56:59.274Z,7.60
2022-10-13T10:00:28.018Z,6.35
2022-10-13T10:03:36.032Z,7.67
2022-10-13T10:06:39.014Z,6.80
2022-10-13T10:09:48.231Z,7.53
2022-10-13T10:12:54.603Z,5.50
2022-10-13T10:16:07.717Z,5.18
2022-10-13T10:19:20.714Z,7.77
2022-10-13T10:22:47.796Z,6.55
2022-10-13T10:26:06.388Z,6.50
2022-10-13T10:29:24.090Z,9.75
2022-10-13T10:32:32.737Z,6.97
2022-10-13T10:35:49.789Z,5.70
2022-10-13T10:39:00.072Z,6.65
2022-10-13T10:42:35.857Z,7.20
2022-10-13T10:45:39.730Z,9.23
2022-10-13T10:48:44.685Z,6.97
2022-10-13T10:51:47.570Z,8.60
2022-10-13T10:55:00.008Z,8.32
2022-10-13T10:58:06.679Z,9.70
2022-10-13T11:01:12.450Z,10.55
2022-10-13T11:04:41.874Z,8.05
2022-10-13T11:07:44.410Z,7.53
2022-10-13T11:10:46.908Z,9.32
2022-10-13T11:14:11.191Z,18.77
2022-10-13T11:17:39.082Z,7.22
2022-10-13T11:20:49.802Z,8.35
2022-10-13T11:23:52.324Z,8.73
2022-10-13T11:26:54.742Z,13.50
2022-10-13T11:29:59.019Z,7.38
2022-10-13T11:33:09.129Z,10.57
2022-10-13T11:36:36.470Z,9.07
2022-10-13T11:39:59.522Z,9.13
2022-10-13T11:43:18.287Z,10.50
2022-10-13T11:46:25.649Z,7.93
2022-10-13T11:49:49.400Z,11.25
2022-10-13T11:53:11.496Z,10.30
2022-10-13T11:56:56.971Z,12.83
2022-10-13T11:59:59.371Z,9.68
2022-10-13T12:03:04.962Z,9.95
2022-10-13T12:06:16.884Z,9.65
2022-10-13T12:09:21.621Z,8.55
2022-10-13T12:12:25.038Z,13.53
2022-10-13T12:15:40.511Z,16.52
2022-10-13T12:18:42.922Z,12.27
2022-10-13T12:21:57.130Z,7.47
2022-10-13T12:25:01.910Z,10.05
2022-10-13T12:28:07.176Z,8.70
2022-10-13T12:31:18.398Z,9.80
2022-10-13T12:34:27.685Z,9.20
2022-10-13T12:37:33.534Z,9.77
2022-10-13T12:40:36.025Z,8.00
2022-10-13T12:43:38.603Z,9.83
2022-10-13T12:46:58.727Z,8.82
2022-10-13T12:50:29.245Z,8.80
2022-10-13T12:53:32.669Z,11.65
2022-10-13T12:56:35.190Z,12.40
2022-10-13T12:59:42.235Z,7.53
2022-10-13T13:02:52.526Z,9.40
2022-10-13T13:06:13.236Z,16.23
2022-10-13T13:09:21.914Z,10.98
2022-10-13T13:12:27.630Z,11.63
2022-10-13T13:15:35.655Z,10.23
2022-10-13T13:18:41.671Z,12.82
2022-10-13T13:21:44.175Z,12.25
2022-10-13T13:24:46.971Z,11.10
2022-10-13T13:27:49.563Z,9.18
2022-10-13T13:30:52.056Z,8.20
2022-10-13T13:33:54.622Z,9.43
2022-10-13T13:36:57.033Z,9.30
2022-10-13T13:40:00.361Z,8.77
2022-10-13T13:43:03.029Z,9.15
2022-10-13T13:46:09.858Z,9.30
2022-10-13T13:49:12.377Z,9.18
2022-10-13T13:52:15.737Z,8.23
2022-10-13T13:55:18.195Z,7.35
2022-10-13T13:58:20.829Z,10.30
2022-10-13T14:01:23.710Z,8.63
2022-10-13T14:04:26.139Z,8.80
2022-10-13T14:07:28.498Z,8.40
2022-10-13T14:10:33.635Z,7.03
2022-10-13T14:13:36.153Z,8.77
2022-10-13T14:16:38.611Z,8.83
2022-10-13T14:19:42.073Z,11.43
2022-10-13T14:22:44.482Z,9.10
2022-10-13T14:25:46.872Z,8.18
2022-10-13T14:28:50.013Z,7.75
2022-10-13T14:31:52.428Z,8.77
2022-10-13T14:34:54.840Z,7.45
2022-10-13T14:37:57.255Z,10.50
2022-10-13T14:41:00.876Z,9.63
2022-10-13T14:44:03.272Z,10.85
2022-10-13T14:47:05.719Z,9.53
2022-10-13T14:50:08.703Z,13.55
2022-10-13T14:53:15.289Z,13.93
2022-10-13T14:56:21.077Z,11.73
2022-10-13T14:59:27.655Z,8.32
2022-10-13T15:02:30.115Z,10.03
2022-10-13T15:05:32.539Z,8.68
2022-10-13T15:08:34.956Z,9.00
2022-10-13T15:11:37.388Z,9.27
2022-10-13T15:14:39.855Z,12.27
2022-10-13T15:17:42.249Z,9.67
2022-10-13T15:20:48.275Z,10.02
2022-10-13T15:23:52.000Z,8.68
2022-10-13T15:26:54.467Z,7.82
2022-10-13T15:30:02.467Z,9.27
2022-10-13T15:33:05.920Z,10.60
2022-10-13T15:36:08.442Z,11.35
2022-10-13T15:39:14.857Z,12.40
2022-10-13T15:42:17.272Z,11.88
2022-10-13T15:45:19.740Z,12.05
2022-10-13T15:48:22.797Z,21.47
2022-10-13T15:51:26.900Z,13.75
2022-10-13T15:54:29.590Z,13.50
2022-10-13T15:57:32.033Z,10.45
2022-10-13T16:00:34.479Z,12.60
2022-10-13T16:03:38.914Z,10.40
2022-10-13T16:06:41.477Z,13.65
2022-10-13T16:09:44.634Z,11.68
2022-10-13T16:12:49.635Z,13.32
2022-10-13T16:15:59.624Z,10.57
2022-10-13T16:19:02.036Z,17.13
2022-10-13T16:22:04.546Z,72.88
2022-10-13T16:25:07.517Z,105.07
2022-10-13T16:28:09.879Z,46.70
2022-10-13T16:31:15.933Z,23.77
2022-10-13T16:34:18.325Z,24.37
2022-10-13T16:37:20.890Z,13.05
2022-10-13T16:40:23.427Z,12.82
2022-10-13T16:43:25.856Z,14.35
2022-10-13T16:46:29.246Z,13.70
2022-10-13T16:49:32.073Z,15.50
2022-10-13T16:52:34.472Z,24.00
2022-10-13T16:55:39.821Z,22.67
2022-10-13T16:58:45.090Z,16.95
2022-10-13T17:01:48.818Z,33.75
2022-10-13T17:04:51.319Z,43.97
2022-10-13T17:07:53.701Z,191.60
2022-10-13T17:10:58.456Z,144.82
2022-10-13T17:14:01.459Z,64.15
2022-10-13T17:17:05.593Z,31.00
2022-10-13T17:20:08.326Z,21.33
2022-10-13T17:23:11.864Z,19.38
2022-10-13T17:26:14.813Z,30.02
2022-10-13T17:29:17.441Z,59.55
2022-10-13T17:32:19.862Z,63.13
2022-10-13T17:35:23.245Z,54.60
2022-10-13T17:38:26.057Z,53.28
2022-10-13T17:41:28.409Z,79.72
2022-10-13T17:44:30.891Z,59.03
2022-10-13T17:47:33.332Z,29.20
2022-10-13T17:50:36.260Z,253.57
2022-10-13T17:53:39.552Z,59.38
2022-10-13T17:56:42.361Z,40.90
2022-10-13T17:59:45.703Z,38.60
2022-10-13T18:02:48.163Z,47.53
2022-10-13T18:05:52.491Z,61.20
2022-10-13T18:08:54.890Z,66.20
2022-10-13T18:11:57.277Z,116.70
2022-10-13T18:14:59.735Z,235.88
2022-10-13T18:18:02.113Z,75.00
2022-10-13T18:21:06.062Z,72.90
2022-10-13T18:24:09.497Z,55.67
2022-10-13T18:27:11.907Z,51.50
2022-10-13T18:30:16.580Z,36.03
2022-10-13T18:33:22.432Z,35.78
2022-10-13T18:36:28.187Z,29.97
2022-10-13T18:39:31.764Z,21.85
2022-10-13T18:42:34.214Z,27.60
2022-10-13T18:45:36.577Z,29.20
2022-10-13T18:48:39.133Z,38.92
2022-10-13T18:51:41.479Z,31.30
2022-10-13T18:54:45.465Z,29.90
2022-10-13T18:57:47.850Z,31.63
2022-10-13T19:00:50.492Z,33.70
2022-10-13T19:03:53.688Z,30.80
2022-10-13T19:06:56.093Z,35.50
2022-10-13T19:09:58.547Z,30.33
2022-10-13T19:13:00.976Z,33.10
2022-10-13T19:16:04.699Z,38.22
2022-10-13T19:19:09.209Z,27.80
2022-10-13T19:22:12.032Z,22.43
2022-10-13T19:25:14.406Z,26.30
2022-10-13T19:28:17.218Z,22.60
2022-10-13T19:31:22.498Z,21.27
2022-10-13T19:34:24.844Z,20.38
2022-10-13T19:37:27.261Z,28.47
2022-10-13T19:40:30.053Z,37.05
2022-10-13T19:43:33.169Z,34.58
2022-10-13T19:46:35.849Z,27.10
2022-10-13T19:49:38.247Z,28.45
2022-10-13T19:52:41.489Z,26.53
2022-10-13T19:55:46.544Z,32.40
2022-10-13T19:58:48.984Z,51.67
2022-10-13T20:07:44.887Z,39.40
2022-10-13T20:10:48.224Z,34.10
2022-10-13T20:13:50.715Z,37.33
2022-10-13T20:16:53.458Z,31.52
2022-10-13T20:19:55.846Z,36.15
2022-10-13T20:22:58.165Z,26.02
2022-10-13T20:26:05.917Z,31.97
2022-10-13T20:29:10.220Z,37.72
2022-10-13T20:32:12.663Z,29.48
2022-10-13T20:35:15.090Z,32.55
2022-10-13T20:38:18.212Z,33.85
2022-10-13T20:41:20.482Z,34.20
2022-10-13T20:44:22.950Z,34.40
2022-10-13T20:47:25.339Z,24.42
2022-10-13T20:50:27.746Z,26.95
2022-10-13T20:53:30.530Z,21.67
2022-10-13T20:56:35.724Z,22.87
2022-10-13T20:59:38.281Z,20.88
2022-10-13T21:02:40.624Z,21.40
2022-10-13T21:05:42.961Z,24.27
2022-10-13T21:08:46.403Z,23.52
2022-10-13T21:11:48.769Z,20.77
2022-10-13T21:14:51.247Z,21.83
2022-10-13T21:17:53.619Z,24.33
2022-10-13T21:20:56.067Z,24.30
2022-10-13T21:24:01.046Z,26.50
2022-10-13T21:27:03.583Z,28.10
2022-10-13T21:30:06.782Z,27.60
2022-10-13T21:33:09.204Z,28.90
2022-10-13T21:36:15.703Z,23.20
2022-10-13T21:39:18.633Z,25.35
2022-10-13T21:42:20.923Z,26.17
2022-10-13T21:45:23.803Z,24.00
2022-10-13T21:48:26.170Z,26.83
2022-10-13T21:51:30.923Z,24.17
2022-10-13T21:54:33.320Z,27.55
2022-10-13T21:57:35.727Z,21.60
2022-10-13T22:00:38.224Z,21.92
2022-10-13T22:03:41.708Z,26.40
2022-10-13T22:06:44.124Z,21.88
2022-10-13T22:09:46.478Z,27.15
2022-10-13T22:12:48.875Z,24.70
2022-10-13T22:15:51.245Z,23.80
2022-10-13T22:18:56.487Z,24.92
2022-10-13T22:21:58.888Z,25.67
2022-10-13T22:25:02.084Z,26.83
2022-10-13T22:28:07.684Z,22.13
2022-10-13T22:31:12.839Z,24.52
2022-10-13T22:34:15.953Z,24.60
2022-10-13T22:37:18.517Z,23.33
2022-10-13T22:40:20.982Z,23.08
2022-10-13T22:43:23.386Z,22.87
2022-10-13T22:46:31.264Z,25.20
2022-10-13T22:49:33.670Z,20.75
2022-10-13T22:52:36.082Z,24.35
2022-10-13T22:55:41.971Z,23.15
2022-10-13T22:58:44.488Z,20.73
2022-10-13T23:01:46.822Z,20.95
2022-10-13T23:04:49.512Z,18.70
2022-10-13T23:07:51.929Z,19.98
2022-10-13T23:10:54.231Z,23.15
2022-10-13T23:13:56.626Z,22.40
2022-10-13T23:16:59.029Z,25.95
2022-10-13T23:20:01.588Z,28.35
2022-10-13T23:23:03.944Z,29.63
2022-10-13T23:26:08.708Z,23.70
2022-10-13T23:29:13.145Z,24.53
2022-10-13T23:32:15.502Z,27.05
2022-10-13T23:35:18.264Z,26.90
2022-10-13T23:38:20.989Z,23.98
2022-10-13T23:41:23.574Z,24.80
2022-10-13T23:44:25.989Z,25.27
2022-10-13T23:47:30.830Z,29.98
2022-10-13T23:50:33.411Z,22.67
2022-10-13T23:53:37.292Z,20.92
2022-10-13T23:56:39.736Z,23.00
2022-10-13T23:59:42.096Z,20.03
